Time,TemperatureF,DewpointF,PressureIn,WindDirection,WindDirectionDegrees,WindSpeedMPH,WindSpeedGustMPH,Humidity,HourlyPrecipIn,Conditions,Clouds,dailyrainin,SoftwareType,DateUTC
2013-05-21 00:01:00,71.2,56.6,30.03,North,0,0.0,0.0,60,0.00,CLR,BKN,0.04,WeatherDisplay:10.37,2013-05-21 04:01:00,
2013-05-21 00:03:00,71.2,56.6,30.03,North,0,0.0,0.0,60,0.00,CLR,BKN,0.04,WeatherDisplay:10.37,2013-05-21 04:03:00,
2013-05-21 00:08:00,71.2,56.2,30.03,North,0,0.0,0.0,59,0.00,CLR,BKN,0.04,WeatherDisplay:10.37,2013-05-21 04:08:00,
2013-05-21 00:13:00,71.2,56.6,30.03,North,0,0.0,0.0,60,0.00,CLR,BKN,0.04,WeatherDisplay:10.37,2013-05-21 04:13:00,
2013-05-21 00:18:00,71.1,56.5,30.03,North,0,0.0,0.0,60,0.00,CLR,BKN,0.04,WeatherDisplay:10.37,2013-05-21 04:18:00,
2013-05-21 00:23:00,70.9,56.3,30.03,North,0,0.0,0.0,60,0.00,CLR,BKN,0.04,WeatherDisplay:10.37,2013-05-21 04:23:00,
2013-05-21 00:28:00,70.7,55.7,30.03,North,0,0.0,0.0,59,0.00,CLR,BKN,0.04,WeatherDisplay:10.37,2013-05-21 04:28:00,
2013-05-21 00:33:00,70.7,57.5,30.03,North,0,0.0,0.0,63,0.00,CLR,BKN,0.04,WeatherDisplay:10.37,2013-05-21 04:33:00,
2013-05-21 00:38:00,70.5,59.0,30.03,North,0,0.0,0.0,67,0.00,CLR,BKN,0.04,WeatherDisplay:10.37,2013-05-21 04:38:00,
2013-05-21 00:43:00,70.5,59.9,30.03,North,0,0.0,0.0,69,0.00,CLR,BKN,0.04,WeatherDisplay:10.37,2013-05-21 04:43:00,
2013-05-21 00:48:00,70.3,60.5,30.03,North,0,0.0,0.0,71,0.00,CLR,BKN,0.04,WeatherDisplay:10.37,2013-05-21 04:48:00,
2013-05-21 00:53:00,70.3,61.3,30.03,North,0,0.0,0.0,73,0.00,CLR,BKN,0.04,WeatherDisplay:10.37,2013-05-21 04:53:00,
2013-05-21 00:58:00,70.2,61.1,30.03,North,0,0.0,0.0,73,0.00,CLR,BKN,0.04,WeatherDisplay:10.37,2013-05-21 04:58:00,
2013-05-21 01:03:00,70.0,61.3,30.03,North,0,0.0,0.0,74,0.00,CLR,BKN,0.04,WeatherDisplay:10.37,2013-05-21 05:03:00,
2013-05-21 01:08:00,70.0,62.4,30.03,North,0,0.0,0.0,77,0.00,CLR,BKN,0.04,WeatherDisplay:10.37,2013-05-21 05:08:00,
2013-05-21 01:13:00,69.8,62.6,30.03,North,0,0.0,0.0,78,0.00,CLR,BKN,0.04,WeatherDisplay:10.37,2013-05-21 05:13:00,
2013-05-21 01:18:00,69.8,62.6,30.03,North,0,0.0,0.0,78,0.00,CLR,BKN,0.04,WeatherDisplay:10.37,2013-05-21 05:18:00,
2013-05-21 01:23:00,69.6,62.8,30.03,North,0,0.0,0.0,79,0.00,CLR,BKN,0.04,WeatherDisplay:10.37,2013-05-21 05:23:00,
2013-05-21 01:28:00,69.4,62.6,30.00,North,0,0.0,0.0,79,0.00,CLR,BKN,0.04,WeatherDisplay:10.37,2013-05-21 05:28:00,
2013-05-21 01:33:00,69.4,62.6,30.00,North,0,0.0,0.0,79,0.00,CLR,BKN,0.04,WeatherDisplay:10.37,2013-05-21 05:33:00,
2013-05-21 01:38:00,69.6,63.2,30.00,North,0,0.0,0.0,80,0.00,CLR,BKN,0.04,WeatherDisplay:10.37,2013-05-21 05:38:00,
2013-05-21 01:43:00,69.8,63.3,30.00,North,0,0.0,0.0,80,0.00,CLR,BKN,0.04,WeatherDisplay:10.37,2013-05-21 05:43:00,
2013-05-21 01:48:00,69.6,63.2,30.00,North,0,0.0,0.0,80,0.00,CLR,BKN,0.04,WeatherDisplay:10.37,2013-05-21 05:48:00,
2013-05-21 01:53:00,69.8,64.1,30.00,North,0,0.0,0.0,82,0.00,CLR,BKN,0.04,WeatherDisplay:10.37,2013-05-21 05:53:00,
2013-05-21 01:58:00,70.0,64.6,30.00,North,0,0.0,0.0,83,0.00,CLR,BKN,0.04,WeatherDisplay:10.37,2013-05-21 05:58:00,
2013-05-21 02:03:00,70.0,64.9,30.00,North,0,0.0,0.0,84,0.00,CLR,BKN,0.04,WeatherDisplay:10.37,2013-05-21 06:03:00,
2013-05-21 02:08:00,70.2,65.1,30.00,North,0,0.0,0.0,84,0.00,CLR,BKN,0.04,WeatherDisplay:10.37,2013-05-21 06:08:00,
2013-05-21 02:13:00,70.2,65.1,29.97,North,0,0.0,0.0,84,0.00,CLR,BKN,0.04,WeatherDisplay:10.37,2013-05-21 06:13:00,
2013-05-21 02:18:00,70.3,65.3,29.97,North,0,0.0,0.0,84,0.00,CLR,BKN,0.04,WeatherDisplay:10.37,2013-05-21 06:18:00,
2013-05-21 02:23:00,70.5,65.1,29.97,North,0,0.0,0.0,83,0.00,CLR,BKN,0.04,WeatherDisplay:10.37,2013-05-21 06:23:00,
2013-05-21 02:28:00,70.5,64.8,30.00,North,0,0.0,0.0,82,0.00,CLR,BKN,0.04,WeatherDisplay:10.37,2013-05-21 06:28:00,
2013-05-21 02:33:00,70.7,64.9,30.00,North,0,0.0,0.0,82,0.00,CLR,BKN,0.04,WeatherDisplay:10.37,2013-05-21 06:33:00,
2013-05-21 02:38:00,70.7,64.6,30.00,North,0,0.0,0.0,81,0.00,CLR,BKN,0.04,WeatherDisplay:10.37,2013-05-21 06:38:00,
2013-05-21 02:43:00,70.5,63.7,29.97,North,0,0.0,0.0,79,0.00,CLR,BKN,0.04,WeatherDisplay:10.37,2013-05-21 06:43:00,
2013-05-21 02:48:00,70.2,62.6,29.97,North,0,0.0,0.0,77,0.00,CLR,BKN,0.04,WeatherDisplay:10.37,2013-05-21 06:48:00,
2013-05-21 02:53:00,69.6,61.3,29.97,North,0,0.0,0.0,75,0.00,CLR,BKN,0.04,WeatherDisplay:10.37,2013-05-21 06:53:00,
2013-05-21 02:58:00,69.4,61.2,29.97,North,0,0.0,0.0,75,0.00,CLR,BKN,0.04,WeatherDisplay:10.37,2013-05-21 06:58:00,
2013-05-21 03:03:00,69.3,61.4,29.97,North,0,0.0,0.0,76,0.00,CLR,BKN,0.04,WeatherDisplay:10.37,2013-05-21 07:03:00,
2013-05-21 03:08:00,69.3,62.1,29.97,North,0,0.0,0.0,78,0.00,CLR,BKN,0.04,WeatherDisplay:10.37,2013-05-21 07:08:00,
2013-05-21 03:13:00,69.1,62.6,29.97,North,0,0.0,0.0,80,0.00,CLR,BKN,0.04,WeatherDisplay:10.37,2013-05-21 07:13:00,
2013-05-21 03:18:00,69.1,62.6,29.97,North,0,0.0,0.0,80,0.00,CLR,BKN,0.04,WeatherDisplay:10.37,2013-05-21 07:18:00,
2013-05-21 03:23:00,68.9,62.8,29.97,North,0,0.0,0.0,81,0.00,CLR,BKN,0.04,WeatherDisplay:10.37,2013-05-21 07:23:00,
2013-05-21 03:28:00,68.9,63.2,29.97,North,0,0.0,0.0,82,0.00,CLR,BKN,0.04,WeatherDisplay:10.37,2013-05-21 07:28:00,
2013-05-21 03:33:00,68.9,63.2,29.97,North,0,0.0,0.0,82,0.00,CLR,BKN,0.04,WeatherDisplay:10.37,2013-05-21 07:33:00,
2013-05-21 03:38:00,68.9,63.2,29.97,North,0,0.0,0.0,82,0.00,CLR,BKN,0.04,WeatherDisplay:10.37,2013-05-21 07:38:00,
2013-05-21 03:43:00,68.9,63.2,29.97,North,0,0.0,0.0,82,0.00,CLR,BKN,0.04,WeatherDisplay:10.37,2013-05-21 07:43:00,
2013-05-21 03:48:00,68.7,63.3,29.97,North,0,0.0,0.0,83,0.00,CLR,BKN,0.04,WeatherDisplay:10.37,2013-05-21 07:48:00,
2013-05-21 03:53:00,68.7,63.7,29.97,North,0,0.0,0.0,84,0.00,CLR,BKN,0.04,WeatherDisplay:10.37,2013-05-21 07:53:00,
2013-05-21 03:58:00,68.7,63.7,29.97,North,0,0.0,0.0,84,0.00,CLR,BKN,0.04,WeatherDisplay:10.37,2013-05-21 07:58:00,
2013-05-21 04:03:00,68.5,63.5,29.97,North,0,0.0,0.0,84,0.00,CLR,BKN,0.04,WeatherDisplay:10.37,2013-05-21 08:03:00,
2013-05-21 04:08:00,68.5,63.5,29.97,North,0,0.0,0.0,84,0.00,CLR,BKN,0.04,WeatherDisplay:10.37,2013-05-21 08:08:00,
2013-05-21 04:13:00,68.5,63.8,29.97,North,0,0.0,0.0,85,0.00,CLR,BKN,0.04,WeatherDisplay:10.37,2013-05-21 08:13:00,
2013-05-21 04:18:00,68.7,64.4,29.97,North,0,0.0,0.0,86,0.00,CLR,BKN,0.04,WeatherDisplay:10.37,2013-05-21 08:18:00,
2013-05-21 04:23:00,68.9,65.2,29.97,North,0,0.0,0.0,88,0.00,CLR,BKN,0.04,WeatherDisplay:10.37,2013-05-21 08:23:00,
2013-05-21 04:28:00,69.3,66.2,29.97,North,0,0.0,0.0,90,0.00,CLR,BKN,0.04,WeatherDisplay:10.37,2013-05-21 08:28:00,
2013-05-21 04:33:00,69.4,66.7,29.97,North,0,0.0,0.0,91,0.00,CLR,BKN,0.04,WeatherDisplay:10.37,2013-05-21 08:33:00,
2013-05-21 04:38:00,69.4,66.7,29.97,North,0,0.0,0.0,91,0.00,CLR,BKN,0.04,WeatherDisplay:10.37,2013-05-21 08:38:00,
2013-05-21 04:43:00,69.6,66.9,29.97,North,0,0.0,0.0,91,0.00,CLR,BKN,0.04,WeatherDisplay:10.37,2013-05-21 08:43:00,
2013-05-21 04:48:00,69.6,66.6,29.97,North,0,0.0,0.0,90,0.00,CLR,BKN,0.04,WeatherDisplay:10.37,2013-05-21 08:48:00,
2013-05-21 04:53:00,69.6,66.6,29.97,North,0,0.0,0.0,90,0.00,CLR,BKN,0.04,WeatherDisplay:10.37,2013-05-21 08:53:00,
2013-05-21 04:58:00,69.8,66.4,29.97,North,0,0.0,0.0,89,0.00,CLR,BKN,0.04,WeatherDisplay:10.37,2013-05-21 08:58:00,
2013-05-21 05:03:00,69.8,66.4,29.97,North,0,0.0,0.0,89,0.00,CLR,BKN,0.04,WeatherDisplay:10.37,2013-05-21 09:03:00,
2013-05-21 05:08:00,69.8,66.1,29.97,North,0,0.0,0.0,88,0.00,CLR,BKN,0.04,WeatherDisplay:10.37,2013-05-21 09:08:00,
2013-05-21 05:13:00,69.8,66.1,29.97,North,0,0.0,0.0,88,0.00,CLR,BKN,0.04,WeatherDisplay:10.37,2013-05-21 09:13:00,
2013-05-21 05:18:00,69.8,66.1,29.97,North,0,0.0,0.0,88,0.00,CLR,BKN,0.04,WeatherDisplay:10.37,2013-05-21 09:18:00,
2013-05-21 05:23:00,69.8,65.8,29.97,North,0,0.0,0.0,87,0.00,CLR,BKN,0.04,WeatherDisplay:10.37,2013-05-21 09:23:00,
2013-05-21 05:28:00,69.8,65.8,29.97,North,0,0.0,0.0,87,0.00,CLR,BKN,0.04,WeatherDisplay:10.37,2013-05-21 09:28:00,
2013-05-21 05:33:00,69.8,65.4,29.97,North,0,0.0,0.0,86,0.00,CLR,BKN,0.04,WeatherDisplay:10.37,2013-05-21 09:33:00,
2013-05-21 05:38:00,69.8,65.4,29.97,North,0,0.0,0.0,86,0.00,CLR,BKN,0.04,WeatherDisplay:10.37,2013-05-21 09:38:00,
2013-05-21 05:43:00,69.8,65.4,29.97,North,0,0.0,0.0,86,0.00,CLR,BKN,0.04,WeatherDisplay:10.37,2013-05-21 09:43:00,
2013-05-21 05:48:00,69.8,65.4,29.97,North,0,0.0,0.0,86,0.00,CLR,BKN,0.04,WeatherDisplay:10.37,2013-05-21 09:48:00,
2013-05-21 05:53:00,69.8,65.4,29.97,North,0,0.0,0.0,86,0.00,CLR,BKN,0.04,WeatherDisplay:10.37,2013-05-21 09:53:00,
2013-05-21 05:58:00,69.8,65.1,30.00,North,0,0.0,0.0,85,0.00,CLR,BKN,0.04,WeatherDisplay:10.37,2013-05-21 09:58:00,
2013-05-21 06:03:00,69.8,65.1,30.00,North,0,0.0,0.0,85,0.00,CLR,BKN,0.04,WeatherDisplay:10.37,2013-05-21 10:03:00,
2013-05-21 06:08:00,69.8,65.1,30.00,North,0,0.0,0.0,85,0.00,CLR,BKN,0.04,WeatherDisplay:10.37,2013-05-21 10:08:00,
2013-05-21 06:13:00,69.8,65.1,29.97,North,0,0.0,0.0,85,0.00,CLR,BKN,0.04,WeatherDisplay:10.37,2013-05-21 10:13:00,
2013-05-21 06:18:00,69.8,65.1,29.97,North,0,0.0,0.0,85,0.00,CLR,BKN,0.04,WeatherDisplay:10.37,2013-05-21 10:18:00,
2013-05-21 06:23:00,70.0,65.3,29.97,North,0,0.0,0.0,85,0.00,CLR,BKN,0.04,WeatherDisplay:10.37,2013-05-21 10:23:00,
2013-05-21 06:28:00,70.0,64.9,30.00,North,0,0.0,0.0,84,0.00,CLR,BKN,0.04,WeatherDisplay:10.37,2013-05-21 10:28:00,
2013-05-21 06:33:00,70.0,64.9,30.00,North,0,0.0,0.0,84,0.00,CLR,BKN,0.04,WeatherDisplay:10.37,2013-05-21 10:33:00,
2013-05-21 06:39:00,70.0,64.6,30.00,North,0,0.0,0.0,83,0.00,CLR,BKN,0.04,WeatherDisplay:10.37,2013-05-21 10:39:00,
2013-05-21 06:44:00,70.0,64.6,30.00,North,0,0.0,0.0,83,0.00,CLR,BKN,0.04,WeatherDisplay:10.37,2013-05-21 10:44:00,
2013-05-21 06:49:00,70.2,64.8,30.00,North,0,0.0,0.0,83,0.00,CLR,BKN,0.04,WeatherDisplay:10.37,2013-05-21 10:49:00,
2013-05-21 06:54:00,70.2,64.4,30.00,North,0,0.0,0.0,82,0.00,CLR,BKN,0.04,WeatherDisplay:10.37,2013-05-21 10:54:00,
2013-05-21 06:59:00,70.2,64.4,30.00,North,0,0.0,0.0,82,0.00,CLR,BKN,0.04,WeatherDisplay:10.37,2013-05-21 10:59:00,
2013-05-21 07:04:00,70.3,64.2,30.00,North,0,0.0,0.0,81,0.00,CLR,BKN,0.04,WeatherDisplay:10.37,2013-05-21 11:04:00,
2013-05-21 07:09:00,70.3,64.2,30.00,North,0,0.0,0.0,81,0.00,CLR,BKN,0.04,WeatherDisplay:10.37,2013-05-21 11:09:00,
2013-05-21 07:14:00,70.5,64.0,30.00,North,0,0.0,0.0,80,0.00,CLR,BKN,0.04,WeatherDisplay:10.37,2013-05-21 11:14:00,
2013-05-21 07:19:00,70.7,63.9,30.00,North,0,0.0,0.0,79,0.00,CLR,BKN,0.04,WeatherDisplay:10.37,2013-05-21 11:19:00,
2013-05-21 07:24:00,70.9,64.0,30.00,North,0,0.0,0.0,79,0.00,CLR,BKN,0.04,WeatherDisplay:10.37,2013-05-21 11:24:00,
2013-05-21 07:29:00,71.1,63.9,30.00,North,0,0.0,0.0,78,0.00,CLR,BKN,0.04,WeatherDisplay:10.37,2013-05-21 11:29:00,
2013-05-21 07:34:00,71.4,62.3,30.00,North,0,0.0,0.0,73,0.00,CLR,BKN,0.04,WeatherDisplay:10.37,2013-05-21 11:34:00,
2013-05-21 07:39:00,71.4,61.1,30.00,North,0,0.0,0.0,70,0.00,CLR,BKN,0.04,WeatherDisplay:10.37,2013-05-21 11:39:00,
2013-05-21 07:44:00,71.8,60.2,30.00,North,0,0.0,0.0,67,0.00,CLR,BKN,0.04,WeatherDisplay:10.37,2013-05-21 11:44:00,
2013-05-21 07:49:00,72.3,60.3,30.00,North,0,0.0,0.0,66,0.00,CLR,BKN,0.04,WeatherDisplay:10.37,2013-05-21 11:49:00,
2013-05-21 07:54:00,72.5,59.2,30.00,North,0,0.0,0.0,63,0.00,CLR,BKN,0.04,WeatherDisplay:10.37,2013-05-21 11:54:00,
2013-05-21 07:59:00,72.7,58.0,30.00,North,0,0.0,0.0,60,0.00,CLR,BKN,0.04,WeatherDisplay:10.37,2013-05-21 11:59:00,
2013-05-21 08:04:00,72.9,56.7,30.00,North,0,0.0,0.0,57,0.00,CLR,BKN,0.04,WeatherDisplay:10.37,2013-05-21 12:04:00,
2013-05-21 08:09:00,73.0,55.9,30.00,North,0,0.0,0.0,55,0.00,CLR,BKN,0.04,WeatherDisplay:10.37,2013-05-21 12:09:00,
2013-05-21 08:14:00,73.9,57.3,30.00,North,0,0.0,0.0,56,0.00,CLR,BKN,0.04,WeatherDisplay:10.37,2013-05-21 12:14:00,
2013-05-21 08:19:00,74.7,57.9,30.00,North,0,0.0,0.0,56,0.00,CLR,BKN,0.04,WeatherDisplay:10.37,2013-05-21 12:19:00,
2013-05-21 08:24:00,74.8,54.4,30.00,North,0,0.0,0.0,49,0.00,CLR,BKN,0.04,WeatherDisplay:10.37,2013-05-21 12:24:00,
2013-05-21 08:29:00,75.0,54.0,30.00,North,0,0.0,0.0,48,0.00,CLR,BKN,0.04,WeatherDisplay:10.37,2013-05-21 12:29:00,
2013-05-21 08:34:00,75.2,53.6,30.00,North,0,0.0,0.0,47,0.00,CLR,BKN,0.04,WeatherDisplay:10.37,2013-05-21 12:34:00,
2013-05-21 08:39:00,75.4,53.2,30.00,North,0,0.0,0.0,46,0.00,CLR,BKN,0.04,WeatherDisplay:10.37,2013-05-21 12:39:00,
2013-05-21 08:45:00,75.9,53.0,30.00,North,0,0.0,0.0,45,0.00,CLR,BKN,0.04,WeatherDisplay:10.37,2013-05-21 12:45:00,
2013-05-21 08:56:00,76.5,52.3,30.00,North,0,0.0,0.0,43,0.00,CLR,BKN,0.04,WeatherDisplay:10.37,2013-05-21 12:56:00,
2013-05-21 09:02:00,76.6,52.5,30.00,North,0,0.0,0.0,43,0.00,CLR,BKN,0.04,WeatherDisplay:10.37,2013-05-21 13:02:00,
2013-05-21 09:07:00,77.0,51.5,30.00,North,0,0.0,0.0,41,0.00,CLR,BKN,0.04,WeatherDisplay:10.37,2013-05-21 13:07:00,
2013-05-21 09:12:00,77.4,51.8,30.00,North,0,0.0,0.0,41,0.00,CLR,BKN,0.04,WeatherDisplay:10.37,2013-05-21 13:12:00,
2013-05-21 09:17:00,78.3,53.3,30.00,North,0,0.0,0.0,42,0.00,CLR,BKN,0.04,WeatherDisplay:10.37,2013-05-21 13:17:00,
2013-05-21 09:22:00,77.9,51.6,30.00,North,0,0.0,0.0,40,0.00,CLR,BKN,0.04,WeatherDisplay:10.37,2013-05-21 13:22:00,
2013-05-21 09:29:00,78.4,50.0,30.03,North,0,0.0,0.0,37,0.00,CLR,BKN,0.04,WeatherDisplay:10.37,2013-05-21 13:29:00,
2013-05-21 09:34:00,79.2,50.6,30.03,North,0,0.0,0.0,37,0.00,CLR,BKN,0.04,WeatherDisplay:10.37,2013-05-21 13:34:00,
2013-05-21 09:40:00,79.3,48.5,30.03,North,0,0.0,0.0,34,0.00,CLR,BKN,0.04,WeatherDisplay:10.37,2013-05-21 13:40:00,
2013-05-21 09:45:00,79.7,48.0,30.00,North,0,0.0,0.0,33,0.00,CLR,BKN,0.04,WeatherDisplay:10.37,2013-05-21 13:45:00,
2013-05-21 09:50:00,79.7,47.2,30.00,North,0,0.0,0.0,32,0.00,CLR,BKN,0.04,WeatherDisplay:10.37,2013-05-21 13:50:00,
2013-05-21 09:55:00,80.4,47.9,30.00,North,0,0.0,0.0,32,0.00,CLR,BKN,0.04,WeatherDisplay:10.37,2013-05-21 13:55:00,
2013-05-21 10:00:00,80.8,46.4,30.00,North,0,0.0,0.0,30,0.00,CLR,BKN,0.04,WeatherDisplay:10.37,2013-05-21 14:00:00,
2013-05-21 10:05:00,81.1,46.8,30.00,North,0,0.0,0.0,30,0.00,CLR,BKN,0.04,WeatherDisplay:10.37,2013-05-21 14:05:00,
2013-05-21 10:10:00,81.1,46.8,30.00,North,0,0.0,0.0,30,0.00,CLR,BKN,0.04,WeatherDisplay:10.37,2013-05-21 14:10:00,
2013-05-21 10:15:00,81.9,47.4,30.03,North,0,0.0,0.0,30,0.00,CLR,BKN,0.04,WeatherDisplay:10.37,2013-05-21 14:15:00,
2013-05-21 10:20:00,81.7,45.4,30.03,North,0,0.0,0.0,28,0.00,CLR,BKN,0.04,WeatherDisplay:10.37,2013-05-21 14:20:00,
2013-05-21 10:25:00,82.6,47.1,30.03,North,0,0.0,0.0,29,0.00,CLR,BKN,0.04,WeatherDisplay:10.37,2013-05-21 14:25:00,
2013-05-21 10:30:00,82.2,43.9,30.03,North,0,0.0,0.0,26,0.00,CLR,BKN,0.04,WeatherDisplay:10.37,2013-05-21 14:30:00,
2013-05-21 10:35:00,82.4,42.0,30.03,North,0,0.0,0.0,24,0.00,CLR,BKN,0.04,WeatherDisplay:10.37,2013-05-21 14:35:00,
2013-05-21 10:40:00,83.5,42.9,30.03,North,0,0.0,0.0,24,0.00,CLR,BKN,0.04,WeatherDisplay:10.37,2013-05-21 14:40:00,
2013-05-21 10:45:00,83.7,41.9,30.00,North,0,0.0,0.0,23,0.00,CLR,BKN,0.04,WeatherDisplay:10.37,2013-05-21 14:45:00,
2013-05-21 10:50:00,84.0,39.9,30.00,North,0,0.0,0.0,21,0.00,CLR,BKN,0.04,WeatherDisplay:10.37,2013-05-21 14:50:00,
2013-05-21 10:55:00,84.0,39.9,30.00,North,0,0.0,0.0,21,0.00,CLR,BKN,0.04,WeatherDisplay:10.37,2013-05-21 14:55:00,
2013-05-21 11:04:00,84.4,38.9,30.03,North,0,0.0,0.0,20,0.00,CLR,BKN,0.04,WeatherDisplay:10.37,2013-05-21 15:04:00,
2013-05-21 11:09:00,82.9,37.7,30.03,North,0,0.0,0.0,20,0.00,CLR,BKN,0.04,WeatherDisplay:10.37,2013-05-21 15:09:00,
2013-05-21 11:14:00,83.7,39.6,30.03,North,0,0.0,0.0,21,0.00,CLR,BKN,0.04,WeatherDisplay:10.37,2013-05-21 15:14:00,
2013-05-21 11:19:00,84.7,37.9,30.03,North,0,0.0,0.0,19,0.00,CLR,BKN,0.04,WeatherDisplay:10.37,2013-05-21 15:19:00,
2013-05-21 11:24:00,85.6,38.6,30.03,North,0,0.0,0.0,19,0.00,CLR,BKN,0.04,WeatherDisplay:10.37,2013-05-21 15:24:00,
2013-05-21 11:29:00,85.5,38.5,30.03,North,0,0.0,0.0,19,0.00,CLR,BKN,0.04,WeatherDisplay:10.37,2013-05-21 15:29:00,
2013-05-21 11:34:00,85.6,38.6,30.03,North,0,0.0,0.0,19,0.00,CLR,BKN,0.04,WeatherDisplay:10.37,2013-05-21 15:34:00,
2013-05-21 11:39:00,86.5,38.0,30.03,North,0,0.0,0.0,18,0.00,CLR,BKN,0.04,WeatherDisplay:10.37,2013-05-21 15:39:00,
2013-05-21 11:44:00,87.1,38.4,30.03,North,0,0.0,0.0,18,0.00,CLR,BKN,0.04,WeatherDisplay:10.37,2013-05-21 15:44:00,
2013-05-21 11:49:00,87.1,35.4,30.03,North,0,0.0,0.0,16,0.00,CLR,BKN,0.04,WeatherDisplay:10.37,2013-05-21 15:49:00,
2013-05-21 11:54:00,87.3,30.4,30.03,North,0,0.0,0.0,13,0.00,CLR,BKN,0.04,WeatherDisplay:10.37,2013-05-21 15:54:00,
2013-05-21 11:59:00,87.6,30.7,30.03,North,0,0.0,0.0,13,0.00,CLR,BKN,0.04,WeatherDisplay:10.37,2013-05-21 15:59:00,
2013-05-21 12:04:00,87.1,30.3,30.03,North,0,0.0,0.0,13,0.00,CLR,BKN,0.04,WeatherDisplay:10.37,2013-05-21 16:04:00,
2013-05-21 12:11:00,87.6,30.7,30.03,North,0,0.0,0.0,13,0.00,CLR,BKN,0.04,WeatherDisplay:10.37,2013-05-21 16:11:00,
2013-05-21 12:17:00,88.2,31.1,30.00,North,0,0.0,0.0,13,0.00,CLR,BKN,0.04,WeatherDisplay:10.37,2013-05-21 16:17:00,
2013-05-21 12:22:00,88.3,31.2,30.00,North,0,0.0,0.0,13,0.00,CLR,BKN,0.04,WeatherDisplay:10.37,2013-05-21 16:22:00,
2013-05-21 12:27:00,89.4,32.1,30.00,North,0,0.0,0.0,13,0.00,CLR,BKN,0.04,WeatherDisplay:10.37,2013-05-21 16:27:00,
2013-05-21 12:32:00,89.2,25.5,30.00,North,0,0.0,0.0,10,0.00,CLR,BKN,0.04,WeatherDisplay:10.37,2013-05-21 16:32:00,
2013-05-21 12:37:00,89.4,32.1,30.00,North,0,0.0,0.0,13,0.00,CLR,BKN,0.04,WeatherDisplay:10.37,2013-05-21 16:37:00,
2013-05-21 12:42:00,90.5,30.9,30.00,North,0,0.0,0.0,12,0.00,CLR,BKN,0.04,WeatherDisplay:10.37,2013-05-21 16:42:00,
2013-05-21 12:47:00,90.0,26.1,30.00,North,0,0.0,0.0,10,0.00,CLR,BKN,0.04,WeatherDisplay:10.37,2013-05-21 16:47:00,
2013-05-21 12:53:00,89.0,25.3,30.00,North,0,0.0,0.0,10,0.00,CLR,BKN,0.04,WeatherDisplay:10.37,2013-05-21 16:53:00,
2013-05-21 12:58:00,89.6,25.8,30.00,North,0,0.0,0.0,10,0.00,CLR,BKN,0.04,WeatherDisplay:10.37,2013-05-21 16:58:00,
2013-05-21 13:03:00,90.0,26.1,29.97,North,0,0.0,0.0,10,0.00,CLR,BKN,0.04,WeatherDisplay:10.37,2013-05-21 17:03:00,
2013-05-21 13:08:00,89.8,25.9,29.97,North,0,0.0,0.0,10,0.00,CLR,BKN,0.04,WeatherDisplay:10.37,2013-05-21 17:08:00,
2013-05-21 13:15:00,88.7,25.1,29.97,North,0,0.0,0.0,10,0.00,CLR,BKN,0.04,WeatherDisplay:10.37,2013-05-21 17:15:00,
2013-05-21 13:20:00,90.0,26.1,29.97,North,0,0.0,0.0,10,0.00,CLR,BKN,0.04,WeatherDisplay:10.37,2013-05-21 17:20:00,
2013-05-21 13:25:00,89.6,25.8,29.97,North,0,0.0,0.0,10,0.00,CLR,BKN,0.04,WeatherDisplay:10.37,2013-05-21 17:25:00,
2013-05-21 13:30:00,89.6,25.8,29.97,North,0,0.0,0.0,10,0.00,CLR,BKN,0.04,WeatherDisplay:10.37,2013-05-21 17:30:00,
2013-05-21 13:35:00,89.4,25.7,29.97,North,0,0.0,0.0,10,0.00,CLR,BKN,0.04,WeatherDisplay:10.37,2013-05-21 17:35:00,
2013-05-21 13:40:00,89.2,25.5,29.97,North,0,0.0,0.0,10,0.00,CLR,BKN,0.04,WeatherDisplay:10.37,2013-05-21 17:40:00,
2013-05-21 13:45:00,90.0,26.1,29.97,North,0,0.0,0.0,10,0.00,CLR,BKN,0.04,WeatherDisplay:10.37,2013-05-21 17:45:00,
2013-05-21 13:50:00,89.4,25.7,29.97,North,0,0.0,0.0,10,0.00,CLR,BKN,0.04,WeatherDisplay:10.37,2013-05-21 17:50:00,
2013-05-21 13:55:00,89.4,25.7,29.97,North,0,0.0,0.0,10,0.00,CLR,BKN,0.04,WeatherDisplay:10.37,2013-05-21 17:55:00,
2013-05-21 14:00:00,89.2,25.5,29.97,North,0,0.0,0.0,10,0.00,CLR,BKN,0.04,WeatherDisplay:10.37,2013-05-21 18:00:00,
2013-05-21 14:05:00,90.9,26.8,29.97,North,0,0.0,0.0,10,0.00,CLR,BKN,0.04,WeatherDisplay:10.37,2013-05-21 18:05:00,
2013-05-21 14:10:00,90.9,26.8,29.97,North,0,0.0,0.0,10,0.00,CLR,BKN,0.04,WeatherDisplay:10.37,2013-05-21 18:10:00,
2013-05-21 14:15:00,91.9,25.0,29.94,North,0,0.0,0.0,9,0.00,CLR,BKN,0.04,WeatherDisplay:10.37,2013-05-21 18:15:00,
2013-05-21 14:22:00,92.3,25.3,29.94,North,0,0.0,0.0,9,0.00,CLR,BKN,0.04,WeatherDisplay:10.37,2013-05-21 18:22:00,
2013-05-21 14:27:00,91.8,24.9,29.94,North,0,0.0,0.0,9,0.00,CLR,BKN,0.04,WeatherDisplay:10.37,2013-05-21 18:27:00,
2013-05-21 14:32:00,90.9,26.8,29.94,North,0,0.0,0.0,10,0.00,CLR,BKN,0.04,WeatherDisplay:10.37,2013-05-21 18:32:00,
2013-05-21 14:37:00,88.9,25.3,29.94,North,0,0.0,0.0,10,0.00,CLR,BKN,0.04,WeatherDisplay:10.37,2013-05-21 18:37:00,
2013-05-21 14:42:00,88.7,25.1,29.94,North,0,0.0,0.0,10,0.00,CLR,BKN,0.04,WeatherDisplay:10.37,2013-05-21 18:42:00,
2013-05-21 14:47:00,88.0,24.6,29.94,North,0,0.0,0.0,10,0.00,CLR,BKN,0.04,WeatherDisplay:10.37,2013-05-21 18:47:00,
2013-05-21 14:52:00,88.7,31.5,29.94,North,0,0.0,0.0,13,0.00,CLR,BKN,0.04,WeatherDisplay:10.37,2013-05-21 18:52:00,
2013-05-21 14:57:00,89.1,25.4,29.94,North,0,0.0,0.0,10,0.00,CLR,BKN,0.04,WeatherDisplay:10.37,2013-05-21 18:57:00,
2013-05-21 15:02:00,90.0,26.1,29.94,North,0,0.0,0.0,10,0.00,CLR,BKN,0.04,WeatherDisplay:10.37,2013-05-21 19:02:00,
2013-05-21 15:08:00,89.8,25.9,29.94,North,0,0.0,0.0,10,0.00,CLR,BKN,0.04,WeatherDisplay:10.37,2013-05-21 19:08:00,
2013-05-21 15:13:00,89.4,25.7,29.91,North,0,0.0,0.0,10,0.00,CLR,BKN,0.04,WeatherDisplay:10.37,2013-05-21 19:13:00,
2013-05-21 15:18:00,89.4,25.7,29.91,North,0,0.0,0.0,10,0.00,CLR,BKN,0.04,WeatherDisplay:10.37,2013-05-21 19:18:00,
2013-05-21 15:23:00,89.6,30.2,29.91,North,0,0.0,0.0,12,0.00,CLR,BKN,0.04,WeatherDisplay:10.37,2013-05-21 19:23:00,
2013-05-21 15:28:00,89.6,30.2,29.91,North,0,0.0,0.0,12,0.00,CLR,BKN,0.04,WeatherDisplay:10.37,2013-05-21 19:28:00,
2013-05-21 15:33:00,89.6,30.2,29.91,North,0,0.0,0.0,12,0.00,CLR,BKN,0.04,WeatherDisplay:10.37,2013-05-21 19:33:00,
2013-05-21 15:38:00,89.6,30.2,29.91,North,0,0.0,0.0,12,0.00,CLR,BKN,0.04,WeatherDisplay:10.37,2013-05-21 19:38:00,
2013-05-21 15:43:00,89.6,30.2,29.91,North,0,0.0,0.0,12,0.00,CLR,BKN,0.04,WeatherDisplay:10.37,2013-05-21 19:43:00,
2013-05-21 15:48:00,89.6,30.2,29.91,North,0,0.0,0.0,12,0.00,CLR,BKN,0.04,WeatherDisplay:10.37,2013-05-21 19:48:00,
2013-05-21 15:53:00,89.6,30.2,29.91,North,0,0.0,0.0,12,0.00,CLR,BKN,0.04,WeatherDisplay:10.37,2013-05-21 19:53:00,
2013-05-21 17:45:00,89.6,30.2,29.91,North,0,0.0,0.0,12,0.00,CLR,BKN,0.04,WeatherDisplay:10.37,2013-05-21 21:45:00,
2013-05-21 17:50:00,89.6,30.2,29.91,North,0,0.0,0.0,12,0.00,CLR,BKN,0.04,WeatherDisplay:10.37,2013-05-21 21:50:00,
2013-05-21 17:55:00,89.6,30.2,29.91,North,0,0.0,0.0,12,0.00,CLR,BKN,0.04,WeatherDisplay:10.37,2013-05-21 21:55:00,
2013-05-21 18:00:00,89.6,30.2,29.91,North,0,0.0,0.0,12,0.00,CLR,BKN,0.04,WeatherDisplay:10.37,2013-05-21 22:00:00,
2013-05-21 18:05:00,89.6,30.2,29.91,North,0,0.0,0.0,12,0.00,CLR,BKN,0.04,WeatherDisplay:10.37,2013-05-21 22:05:00,
2013-05-21 18:10:00,89.6,30.2,29.91,North,0,0.0,0.0,12,0.00,CLR,BKN,0.04,WeatherDisplay:10.37,2013-05-21 22:10:00,
2013-05-21 18:15:00,89.6,30.2,29.91,North,0,0.0,0.0,12,0.00,CLR,BKN,0.04,WeatherDisplay:10.37,2013-05-21 22:15:00,
2013-05-21 18:20:00,89.6,30.2,29.91,North,0,0.0,0.0,12,0.00,CLR,BKN,0.04,WeatherDisplay:10.37,2013-05-21 22:20:00,
2013-05-21 18:25:00,89.6,30.2,29.91,North,0,0.0,0.0,12,0.00,CLR,BKN,0.04,WeatherDisplay:10.37,2013-05-21 22:25:00,
2013-05-21 18:30:00,89.6,30.2,29.91,North,0,0.0,0.0,12,0.00,CLR,BKN,0.04,WeatherDisplay:10.37,2013-05-21 22:30:00,
2013-05-21 18:35:00,89.6,30.2,29.91,North,0,0.0,0.0,12,0.00,CLR,BKN,0.04,WeatherDisplay:10.37,2013-05-21 22:35:00,
2013-05-21 18:40:00,89.6,30.2,29.91,North,0,0.0,0.0,12,0.00,CLR,BKN,0.04,WeatherDisplay:10.37,2013-05-21 22:40:00,
2013-05-21 18:45:00,89.6,30.2,29.91,North,0,0.0,0.0,12,0.00,CLR,BKN,0.04,WeatherDisplay:10.37,2013-05-21 22:45:00,
2013-05-21 18:50:00,89.6,30.2,29.91,North,0,0.0,0.0,12,0.00,CLR,BKN,0.04,WeatherDisplay:10.37,2013-05-21 22:50:00,
2013-05-21 18:55:00,89.6,30.2,29.91,North,0,0.0,0.0,12,0.00,CLR,BKN,0.04,WeatherDisplay:10.37,2013-05-21 22:55:00,
2013-05-21 19:00:00,89.6,30.2,29.91,North,0,0.0,0.0,12,0.00,CLR,BKN,0.04,WeatherDisplay:10.37,2013-05-21 23:00:00,
2013-05-21 19:05:00,89.6,30.2,29.91,North,0,0.0,0.0,12,0.00,CLR,BKN,0.04,WeatherDisplay:10.37,2013-05-21 23:05:00,
2013-05-21 19:10:00,89.6,30.2,29.91,North,0,0.0,0.0,12,0.00,CLR,BKN,0.04,WeatherDisplay:10.37,2013-05-21 23:10:00,
2013-05-21 19:15:00,89.6,30.2,29.91,North,0,0.0,0.0,12,0.00,CLR,BKN,0.04,WeatherDisplay:10.37,2013-05-21 23:15:00,
2013-05-21 19:20:00,89.6,30.2,29.91,North,0,0.0,0.0,12,0.00,CLR,BKN,0.04,WeatherDisplay:10.37,2013-05-21 23:20:00,
2013-05-21 19:25:00,89.6,30.2,29.91,North,0,0.0,0.0,12,0.00,CLR,BKN,0.04,WeatherDisplay:10.37,2013-05-21 23:25:00,
2013-05-21 19:30:00,89.6,30.2,29.91,North,0,0.0,0.0,12,0.00,CLR,BKN,0.04,WeatherDisplay:10.37,2013-05-21 23:30:00,
2013-05-21 19:35:00,89.6,30.2,29.91,North,0,0.0,0.0,12,0.00,CLR,BKN,0.04,WeatherDisplay:10.37,2013-05-21 23:35:00,
2013-05-21 19:40:00,89.6,30.2,29.91,North,0,0.0,0.0,12,0.00,CLR,BKN,0.04,WeatherDisplay:10.37,2013-05-21 23:40:00,
2013-05-21 19:45:00,89.6,30.2,29.91,North,0,0.0,0.0,12,0.00,CLR,BKN,0.04,WeatherDisplay:10.37,2013-05-21 23:45:00,
2013-05-21 19:50:00,89.6,30.2,29.91,North,0,0.0,0.0,12,0.00,CLR,BKN,0.04,WeatherDisplay:10.37,2013-05-21 23:50:00,
2013-05-21 19:55:00,89.6,30.2,29.91,North,0,0.0,0.0,12,0.00,CLR,BKN,0.04,WeatherDisplay:10.37,2013-05-21 23:55:00,
2013-05-21 20:00:00,89.6,30.2,29.91,North,0,0.0,0.0,12,0.00,RA,BKN,0.00,WeatherDisplay:10.37,2013-05-22 00:00:00,
2013-05-21 20:05:00,89.6,30.2,29.91,North,0,0.0,0.0,12,0.00,RA,BKN,0.00,WeatherDisplay:10.37,2013-05-22 00:05:00,
2013-05-21 20:10:00,89.6,30.2,29.91,North,0,0.0,0.0,12,0.00,CLR,BKN,0.00,WeatherDisplay:10.37,2013-05-22 00:10:00,
2013-05-21 20:15:00,89.6,30.2,29.91,North,0,0.0,0.0,12,0.00,CLR,BKN,0.00,WeatherDisplay:10.37,2013-05-22 00:15:00,
2013-05-21 20:20:00,89.6,30.2,29.91,North,0,0.0,0.0,12,0.00,CLR,BKN,0.00,WeatherDisplay:10.37,2013-05-22 00:20:00,
2013-05-21 20:25:00,89.6,30.2,29.91,North,0,0.0,0.0,12,0.00,CLR,BKN,0.00,WeatherDisplay:10.37,2013-05-22 00:25:00,
2013-05-21 20:30:00,89.6,30.2,29.91,North,0,0.0,0.0,12,0.00,CLR,BKN,0.00,WeatherDisplay:10.37,2013-05-22 00:30:00,
2013-05-21 20:35:00,89.6,30.2,29.91,North,0,0.0,0.0,12,0.00,CLR,BKN,0.00,WeatherDisplay:10.37,2013-05-22 00:35:00,
2013-05-21 20:40:00,89.6,30.2,29.91,North,0,0.0,0.0,12,0.00,CLR,BKN,0.00,WeatherDisplay:10.37,2013-05-22 00:40:00,
2013-05-21 20:45:00,89.6,30.2,29.91,North,0,0.0,0.0,12,0.00,CLR,BKN,0.00,WeatherDisplay:10.37,2013-05-22 00:45:00,
2013-05-21 20:50:00,89.6,30.2,29.91,North,0,0.0,0.0,12,0.00,CLR,BKN,0.00,WeatherDisplay:10.37,2013-05-22 00:50:00,
2013-05-21 20:55:00,89.6,30.2,29.91,North,0,0.0,0.0,12,0.00,CLR,BKN,0.00,WeatherDisplay:10.37,2013-05-22 00:55:00,
2013-05-21 21:00:00,89.6,30.2,29.91,North,0,0.0,0.0,12,0.00,CLR,BKN,0.00,WeatherDisplay:10.37,2013-05-22 01:00:00,
2013-05-21 21:05:00,89.6,30.2,29.91,North,0,0.0,0.0,12,0.00,CLR,BKN,0.00,WeatherDisplay:10.37,2013-05-22 01:05:00,
2013-05-21 21:10:00,89.6,30.2,29.91,North,0,0.0,0.0,12,0.00,CLR,BKN,0.00,WeatherDisplay:10.37,2013-05-22 01:10:00,
2013-05-21 21:15:00,89.6,30.2,29.91,North,0,0.0,0.0,12,0.00,CLR,BKN,0.00,WeatherDisplay:10.37,2013-05-22 01:15:00,
2013-05-21 21:20:00,89.6,30.2,29.91,North,0,0.0,0.0,12,0.00,CLR,BKN,0.00,WeatherDisplay:10.37,2013-05-22 01:20:00,
2013-05-21 21:25:00,89.6,30.2,29.91,North,0,0.0,0.0,12,0.00,CLR,BKN,0.00,WeatherDisplay:10.37,2013-05-22 01:25:00,
2013-05-21 21:30:00,89.6,30.2,29.91,North,0,0.0,0.0,12,0.00,CLR,BKN,0.00,WeatherDisplay:10.37,2013-05-22 01:30:00,
2013-05-21 21:35:00,89.6,30.2,29.91,North,0,0.0,0.0,12,0.00,CLR,BKN,0.00,WeatherDisplay:10.37,2013-05-22 01:35:00,
2013-05-21 21:40:00,89.6,30.2,29.91,North,0,0.0,0.0,12,0.00,CLR,BKN,0.00,WeatherDisplay:10.37,2013-05-22 01:40:00,
2013-05-21 21:45:00,89.6,30.2,29.91,North,0,0.0,0.0,12,0.00,CLR,BKN,0.00,WeatherDisplay:10.37,2013-05-22 01:45:00,
2013-05-21 21:50:00,89.6,30.2,29.91,North,0,0.0,0.0,12,0.00,CLR,BKN,0.00,WeatherDisplay:10.37,2013-05-22 01:50:00,
2013-05-21 21:55:00,89.6,30.2,29.91,North,0,0.0,0.0,12,0.00,CLR,BKN,0.00,WeatherDisplay:10.37,2013-05-22 01:55:00,
2013-05-21 22:00:00,89.6,30.2,29.91,North,0,0.0,0.0,12,0.00,CLR,BKN,0.00,WeatherDisplay:10.37,2013-05-22 02:00:00,
2013-05-21 22:05:00,89.6,30.2,29.91,North,0,0.0,0.0,12,0.00,CLR,BKN,0.00,WeatherDisplay:10.37,2013-05-22 02:05:00,
2013-05-21 22:10:00,89.6,30.2,29.91,North,0,0.0,0.0,12,0.00,CLR,BKN,0.00,WeatherDisplay:10.37,2013-05-22 02:10:00,
2013-05-21 22:15:00,89.6,30.2,29.91,North,0,0.0,0.0,12,0.00,CLR,BKN,0.00,WeatherDisplay:10.37,2013-05-22 02:15:00,
2013-05-21 22:20:00,89.6,30.2,29.91,North,0,0.0,0.0,12,0.00,CLR,BKN,0.00,WeatherDisplay:10.37,2013-05-22 02:20:00,
2013-05-21 22:25:00,89.6,30.2,29.91,North,0,0.0,0.0,12,0.00,CLR,BKN,0.00,WeatherDisplay:10.37,2013-05-22 02:25:00,
2013-05-21 22:30:00,89.6,30.2,29.91,North,0,0.0,0.0,12,0.00,CLR,BKN,0.00,WeatherDisplay:10.37,2013-05-22 02:30:00,
2013-05-21 22:35:00,89.6,30.2,29.91,North,0,0.0,0.0,12,0.00,CLR,BKN,0.00,WeatherDisplay:10.37,2013-05-22 02:35:00,
2013-05-21 22:40:00,89.6,30.2,29.91,North,0,0.0,0.0,12,0.00,CLR,BKN,0.00,WeatherDisplay:10.37,2013-05-22 02:40:00,
2013-05-21 22:45:00,89.6,30.2,29.91,North,0,0.0,0.0,12,0.00,CLR,BKN,0.00,WeatherDisplay:10.37,2013-05-22 02:45:00,
2013-05-21 22:50:00,89.6,30.2,29.91,North,0,0.0,0.0,12,0.00,CLR,BKN,0.00,WeatherDisplay:10.37,2013-05-22 02:50:00,
2013-05-21 22:55:00,89.6,30.2,29.91,North,0,0.0,0.0,12,0.00,CLR,BKN,0.00,WeatherDisplay:10.37,2013-05-22 02:55:00,
2013-05-21 23:00:00,89.6,30.2,29.91,North,0,0.0,0.0,12,0.00,CLR,BKN,0.00,WeatherDisplay:10.37,2013-05-22 03:00:00,
2013-05-21 23:05:00,89.6,30.2,29.91,North,0,0.0,0.0,12,0.00,CLR,BKN,0.00,WeatherDisplay:10.37,2013-05-22 03:05:00,
2013-05-21 23:10:00,89.6,30.2,29.91,North,0,0.0,0.0,12,0.00,CLR,BKN,0.00,WeatherDisplay:10.37,2013-05-22 03:10:00,
2013-05-21 23:15:00,89.6,30.2,29.91,North,0,0.0,0.0,12,0.00,CLR,BKN,0.00,WeatherDisplay:10.37,2013-05-22 03:15:00,
2013-05-21 23:20:00,89.6,30.2,29.91,North,0,0.0,0.0,12,0.00,CLR,BKN,0.00,WeatherDisplay:10.37,2013-05-22 03:20:00,
2013-05-21 23:25:00,89.6,30.2,29.91,North,0,0.0,0.0,12,0.00,CLR,BKN,0.00,WeatherDisplay:10.37,2013-05-22 03:25:00,
2013-05-21 23:30:00,89.6,30.2,29.91,North,0,0.0,0.0,12,0.00,CLR,BKN,0.00,WeatherDisplay:10.37,2013-05-22 03:30:00,
2013-05-21 23:35:00,89.6,30.2,29.91,North,0,0.0,0.0,12,0.00,CLR,BKN,0.00,WeatherDisplay:10.37,2013-05-22 03:35:00,
2013-05-21 23:40:00,89.6,30.2,29.91,North,0,0.0,0.0,12,0.00,CLR,BKN,0.00,WeatherDisplay:10.37,2013-05-22 03:40:00,
2013-05-21 23:45:00,89.6,30.2,29.91,North,0,0.0,0.0,12,0.00,CLR,BKN,0.00,WeatherDisplay:10.37,2013-05-22 03:45:00,
2013-05-21 23:50:00,89.6,30.2,29.91,North,0,0.0,0.0,12,0.00,CLR,BKN,0.00,WeatherDisplay:10.37,2013-05-22 03:50:00,
2013-05-21 23:55:00,89.6,30.2,29.91,North,0,0.0,0.0,12,0.00,CLR,BKN,0.00,WeatherDisplay:10.37,2013-05-22 03:55:00,